Ride Results

Maxisoy Endurance Challenge (Cooyar) (12-03-2016)
Ride distance: 80.0 km

Outcomes - Maxisoy Endurance Challenge (Cooyar) (12-03-2016)
Division No. of Entries Retired / DNE Completed Withdrawn Ineligible V/O Percentage Completed
HW 11 - 7 1 - 3 63.64%
MW 28 - 14 7 - 7 50.00%
LW 26 - 22 - - 4 84.62%
JN 11 - 10 - - 1 90.91%
Totals 76 - 53 8 - 15 69.74%
Results - Maxisoy Endurance Challenge (Cooyar) (12-03-2016)
No. Rider Horse Place Time Leg Speeds Total
Km/Hr
H/R bpm
Heavyweight
41 Gregg Fields Dunwingeri Jasim 1 (BC) 6:12:00 13.7, 12.0 12.90 38, 45, 41 (Avg:43)
68 Matthew Gadsby Maximus Ra 2 6:35:00 11.6, 12.7 12.15 41, 46, 44 (Avg:45)
52 Allen MacKenzie Hill Stone El Shahir 3 7:10:00 12.3, 10.0 11.16 27, 42, 50 (Avg:46)
79 Mark Nimon Ilary Park Sirocco 4 7:11:00 11.2, 10.9 11.14 42, 50, 54 (Avg:52)
3 Gary Surch Eus Warman 5 7:28:00 11.1, 10.2 10.71 40, 42, 54 (Avg:48)
35 Anthony Wolgast Nirou Zoheer 6 7:33:00 11.1, 10.0 10.60 28, 45, 51 (Avg:48)
25 Liz Kirk Dunwingeri Aasalah 7 7:41:00 10.8, 9.9 10.41 42, 42, 50 (Avg:46)
65 Paul Lengronne Royal Windsor Jacob Heart Rate L2 0:00:00 11.6, 12.0 - 32, 50, 66 (Avg:58)
8 Zac Brewer Brookleigh Quincy Gall or injury L1 0:00:00 10.1 - 47, 48 (Avg:48)
47 Tasha Jeremy Hirstglen Bellarina Widthdrawn L1 0:00:00 - - 41, 47 (Avg:47)
69 Mark Nimon Abbeywood Le'Tigre Lame P/R 0:00:00 - - 39
Middleweight
66 Marion Lengronne Kalkadoon Vienna 1 (BC) 6:46:00 11.6, 12.0 11.82 45, 36, 42 (Avg:39)
2 Kirsty Nicholson Gabri-El El Malek 2 7:28:00 11.1, 10.2 10.71 40, 47, 50 (Avg:48)
71 Stephen Gray Longrun Minerva 3 7:30:00 10.8, 10.4 10.67 36, 49, 51 (Avg:50)
73 Cora Becker Count Shaunessy 4 7:31:00 11.0, 10.1 10.64 38, 42, 48 (Avg:45)
20 Gina Matthews Bacchante Medea 5 7:32:00 12.4, 9.0 10.62 43, 47, 37 (Avg:42)
76 Angela Waldock Riverfire 6 7:33:00 11.1, 10.0 10.60 36, 45, 46 (Avg:45)
26 Lorraine Ternouth Dunwingeri Zaza 7 7:41:00 10.8, 9.9 10.41 40, 41, 48 (Avg:44)
1 Ema Basic Poco Lingotte 8 7:58:00 11.1, 8.9 10.04 33, 43, 45 (Avg:44)
28 Graysen Clarke Gray-Gun Solitary Rose 9 8:18:00 9.9, 9.2 9.64 39, 46, 47 (Avg:46)
74 Rosemary Hull Lindall Fahrenheit 9 8:18:00 9.8, 9.3 9.64 37, 45, 50 (Avg:47)
19 Atalia Wood Rocky 9 8:18:00 10.6, 8.6 9.64 34, 45, 52 (Avg:48)
63 Olga Bartlett Mt Eerwah Anastazia 12 8:23:00 9.5, 9.5 9.54 35, 38, 44 (Avg:41)
58 Karen Lee Markus Romulus 13 8:24:00 12.1, 7.6 9.52 41, 47, 49 (Avg:48)
57 Debra Minto Samsara Magic Eagle 13 8:24:00 9.4, 9.5 9.52 33, 48, 54 (Avg:51)
78 Natashja Burton Cool Water Moonshadow Heart Rate L2 0:00:00 9.9, 9.0 - 52, 41, 69 (Avg:55)
70 Holly DeStefani Annordean Cash Lame L2 0:00:00 11.5, 8.7 - 38, 53, 49 (Avg:51)
33 Fiona Fenech Winderella Lodge Sphinx Lame L2 0:00:00 18.4, 12.7 - 32, 50, 45 (Avg:47)
50 Lisa Loranger Esme te Lame L2 0:00:00 11.2, 10.9 - 36, 42, 40 (Avg:41)
6 Georgia Toft Bremervale Silver Chair Lame L2 0:00:00 9.9, 9.7 - 36, 46, 47 (Avg:46)
39 Brenda Davy Bashan Kayla Widthdrawn L1 0:00:00 - - 36, 49 (Avg:49)
17 Alli Gerrard Mafraq Widthdrawn L1 0:00:00 - - 39, 47 (Avg:47)
32 Vicky Hazzard Lavendar Park Bacardi Widthdrawn L1 0:00:00 - - 30, 47 (Avg:47)
30 Antonia Jardine Performance Park Maverick Widthdrawn L1 0:00:00 - - 30, 33 (Avg:33)
23 Danielle Kendall Sugarplum te Gall or injury L1 0:00:00 9.9 - 34, 43 (Avg:43)
27 Jacinta Stubbings Ffire Storm Widthdrawn L1 0:00:00 - - 40, 54 (Avg:54)
34 Phil Thomson Gray-Gun Vanharlen Widthdrawn L1 0:00:00 - - 36, 40 (Avg:40)
5 Warwick Toft Bremervale Apache Heart Rate L1 0:00:00 9.9 - 44, 64 (Avg:64)
24 Akhmed Pshunov Traveller te Widthdrawn P/R 0:00:00 - - 40
Lightweight
49 Janelle Taylor Calico Jarkamarn 1 (BC) 5:47:00 14.4, 13.1 13.83 32, 46, 40 (Avg:43)
45 Ute Jordan Anijoa Delilah 2 6:12:00 14.1, 11.6 12.90 36, 51, 52 (Avg:51)
16 Shelley Chapman Sahala Astronomer 3 6:14:00 14.0, 11.6 12.83 33, 42, 44 (Avg:43)
18 Renae Chapman Shanelli-Park Phoenix 3 6:14:00 14.0, 11.6 12.83 38, 48, 51 (Avg:49)
67 Mindy Davies Ra Silver Dancer 5 6:35:00 11.6, 12.7 12.15 32, 42, 42 (Avg:42)
59 Kelsey Irvine Anglesea Finneas 6 6:44:00 11.4, 12.4 11.88 33, 50, 49 (Avg:49)
64 Tahlia Franke Aphrodite Malakia 7 6:46:00 11.6, 12.0 11.82 39, 42, 43 (Avg:42)
55 Ali Cunneen Steel Poppy Zen 8 7:06:00 11.7, 10.7 11.27 37, 39, 45 (Avg:42)
13 Anita Maggacis Katushka 9 7:11:00 12.1, 10.1 11.14 35, 46, 51 (Avg:48)
42 Karen Fields Meea 10 7:23:00 11.8, 9.8 10.84 36, 48, 50 (Avg:49)
46 Amanda Doyle El'Maas Ginger Kisses 11 7:29:00 10.8, 10.4 10.69 36, 39, 48 (Avg:43)
22 Janelle Roosen Kinder Surprise Silkk 12 7:30:00 10.8, 10.4 10.67 30, 41, 44 (Avg:42)
4 Carol Kite Holly Hill's Billy Boy 13 7:36:00 11.1, 9.8 10.53 36, 45, 50 (Avg:47)
12 Carly Moore Macrocarpa Red Bull 14 7:46:00 10.0, 10.5 10.30 37, 45, 48 (Avg:46)
56 Candice Gurtner Rodborough Sarita 15 7:54:00 10.8, 9.4 10.13 39, 42, 50 (Avg:46)
61 Pandora Bevan Kynnum Park Jai 16 8:00:00 10.7, 9.2 10.00 37, 51, 51 (Avg:51)
60 Christal Rizk Silver Raider 16 8:00:00 10.6, 9.3 10.00 44, 46, 51 (Avg:48)
44 Mel Jacobs Holy Smoke GVA 18 8:07:00 9.8, 9.9 9.86 36, 49, 50 (Avg:49)
43 Sabrina Stephens Burralga Barbarian 18 8:07:00 9.8, 9.9 9.86 36, 46, 52 (Avg:49)
10 Jocelyn Barnes Trinity 20 8:09:00 9.9, 9.6 9.82 34, 40, 48 (Avg:44)
11 Janelle Weise Quiegly 20 8:09:00 9.9, 9.6 9.82 39, 51, 54 (Avg:52)
75 Sonia Hodgetts Dee Zyne Wizz Kid 22 8:18:00 9.8, 9.3 9.64 34, 37, 39 (Avg:38)
7 Luisa Haguiara Porto Alegre Gheerulla Jagger Heart Rate L2 0:00:00 10.1, 11.1 - 42, 51, 65 (Avg:58)
14 Chelsea Moore Macrocarpa Scandium Lame L2 0:00:00 9.9, 10.1 - 37, 41, 47 (Avg:44)
9 Karen Winkel Xanadu Barabbous Lame L2 0:00:00 14.4, 13.1 - 42, 44, 39 (Avg:41)
21 Chloe Bews Monarchs Knight Metabolics severe L1 0:00:00 9.6 - 32, 53 (Avg:53)
Junior
15 Louis Ryan Kholonial Abigaal 1 (BC) 6:06:00 14.1, 12.0 13.11 33, 45, 45 (Avg:45)
54 Brooke Marshall Bashan Bayda 2 7:06:00 11.7, 10.7 11.27 36, 45, 45 (Avg:45)
62 Shauna Wood Briallyn Kirra Bint Zanir 3 7:11:00 12.3, 9.9 11.14 33, 41, 41 (Avg:41)
48 Ronan McKay Jael 4 7:29:00 10.8, 10.4 10.69 36, 50, 52 (Avg:51)
72 Anu Woodruff Becker Teddy 5 7:31:00 11.0, 10.1 10.64 28, 37, 47 (Avg:42)
31 Maddi Dixon Melcot Bella 6 8:18:00 9.9, 9.2 9.64 31, 38, 39 (Avg:38)
37 Maeve Paten S'Shaada Mystique 7 8:20:00 10.1, 9.0 9.60 35, 49, 51 (Avg:50)
38 Mel Simpson Bashan Tahpenes 7 8:20:00 10.1, 9.0 9.60 32, 43, 45 (Avg:44)
36 Christina Simpson Agape Evezra 7 8:20:00 10.1, 9.0 9.60 36, 42, 50 (Avg:46)
40 Phoebe Wilson Kelkette Park Silver Envoy 7 8:20:00 10.1, 9.0 9.60 42, 44, 47 (Avg:45)
77 Emma Dimech Indiana Seabreeze Lame L1 0:00:00 11.1 - 33, 46 (Avg:46)